createdAt,value
2023-11-03T00:00:43.545Z,7.40
2023-11-03T00:05:45.644Z,7.50
2023-11-03T00:10:48.864Z,7.50
2023-11-03T00:15:50.657Z,7.50
2023-11-03T00:20:52.407Z,7.50
2023-11-03T00:25:55.566Z,7.50
2023-11-03T00:30:57.353Z,7.50
2023-11-03T00:35:59.102Z,7.50
2023-11-03T00:41:02.253Z,7.40
2023-11-03T00:46:04.446Z,7.40
2023-11-03T00:51:06.244Z,7.30
2023-11-03T00:56:09.324Z,7.30
2023-11-03T01:01:11.186Z,7.30
2023-11-03T01:06:13.118Z,7.30
2023-11-03T01:11:16.424Z,7.20
2023-11-03T01:16:18.455Z,7.10
2023-11-03T01:21:20.178Z,7.00
2023-11-03T01:26:25.324Z,6.80
2023-11-03T01:31:27.111Z,6.80
2023-11-03T01:36:28.897Z,6.80
2023-11-03T01:41:32.183Z,6.80
2023-11-03T01:46:40.337Z,6.90
2023-11-03T01:51:42.216Z,6.80
2023-11-03T01:56:45.784Z,6.70
2023-11-03T02:01:50.952Z,6.70
2023-11-03T02:06:52.956Z,6.80
2023-11-03T02:11:58.605Z,6.90
2023-11-03T02:17:00.570Z,6.90
2023-11-03T02:22:02.566Z,7.00
2023-11-03T02:27:06.052Z,7.10
2023-11-03T02:32:08.058Z,7.20
2023-11-03T02:37:09.911Z,7.20
2023-11-03T02:42:13.557Z,7.20
2023-11-03T02:47:15.360Z,7.20
2023-11-03T02:52:17.184Z,7.30
2023-11-03T02:57:20.426Z,7.30
2023-11-03T03:02:24.738Z,7.40
2023-11-03T03:07:26.586Z,7.50
2023-11-03T03:12:30.005Z,7.60
2023-11-03T03:17:31.876Z,7.70
2023-11-03T03:22:33.730Z,7.70
2023-11-03T03:27:36.885Z,7.80
2023-11-03T03:32:38.837Z,7.90
2023-11-03T03:37:43.751Z,7.90
2023-11-03T03:42:46.985Z,8.00
2023-11-03T03:47:48.925Z,8.00
2023-11-03T03:52:50.673Z,8.00
2023-11-03T03:57:53.841Z,8.00
2023-11-03T04:02:55.571Z,8.10
2023-11-03T04:07:57.417Z,8.10
2023-11-03T04:13:00.638Z,8.10
2023-11-03T04:18:02.538Z,8.00
2023-11-03T04:23:04.389Z,8.10
2023-11-03T04:28:08.401Z,8.00
2023-11-03T04:33:10.293Z,8.00
2023-11-03T04:38:12.126Z,8.00
2023-11-03T04:43:15.282Z,8.00
2023-11-03T04:48:17.078Z,8.10
2023-11-03T04:53:18.838Z,8.00
2023-11-03T04:58:22.059Z,8.00
2023-11-03T05:03:24.067Z,8.00
2023-11-03T05:08:25.867Z,8.00
2023-11-03T05:13:29.069Z,7.90
2023-11-03T05:18:31.009Z,8.00
2023-11-03T05:23:32.789Z,8.00
2023-11-03T05:28:36.012Z,8.00
2023-11-03T05:33:37.798Z,8.00
2023-11-03T05:38:39.671Z,8.10
2023-11-03T05:43:42.875Z,8.00
2023-11-03T05:48:44.730Z,8.00
2023-11-03T05:53:47.303Z,7.90
2023-11-03T05:58:51.480Z,7.90
2023-11-03T06:03:53.384Z,7.90
2023-11-03T06:08:55.453Z,8.00
2023-11-03T06:13:58.743Z,8.00
2023-11-03T06:19:00.605Z,8.00
2023-11-03T06:24:02.389Z,8.00
2023-11-03T06:29:05.693Z,8.00
2023-11-03T06:34:07.515Z,8.00
2023-11-03T06:39:09.413Z,7.90
2023-11-03T06:44:12.978Z,8.00
2023-11-03T06:49:14.826Z,8.00
2023-11-03T06:54:16.670Z,8.00
2023-11-03T06:59:19.826Z,8.00
2023-11-03T07:04:23.306Z,8.00
2023-11-03T07:09:25.295Z,8.10
2023-11-03T07:14:28.590Z,8.10
2023-11-03T07:19:30.409Z,8.10
2023-11-03T07:24:32.165Z,8.10
2023-11-03T07:29:35.371Z,8.20
2023-11-03T07:34:37.258Z,8.30
2023-11-03T07:39:39.021Z,8.30
2023-11-03T07:44:42.067Z,8.40
2023-11-03T07:49:43.787Z,8.50
2023-11-03T07:54:45.643Z,8.50
2023-11-03T07:59:48.732Z,8.60
2023-11-03T08:04:50.499Z,8.60
2023-11-03T08:09:52.401Z,8.60
2023-11-03T08:14:56.731Z,8.60
2023-11-03T08:19:59.823Z,8.60
2023-11-03T08:25:01.740Z,8.60
2023-11-03T08:30:06.504Z,8.70
2023-11-03T08:35:08.511Z,8.70
2023-11-03T08:40:13.733Z,8.70
2023-11-03T08:45:17.582Z,8.80
2023-11-03T08:50:19.535Z,8.90
2023-11-03T08:55:21.366Z,8.90
2023-11-03T09:00:27.690Z,9.00
2023-11-03T09:05:29.427Z,9.10
2023-11-03T09:10:31.280Z,9.30
2023-11-03T09:15:42.934Z,9.40
2023-11-03T09:20:47.788Z,9.50
2023-11-03T09:25:49.465Z,9.70
2023-11-03T09:30:52.598Z,9.90
2023-11-03T09:35:54.420Z,10.10
2023-11-03T09:40:56.486Z,10.30
2023-11-03T09:45:59.771Z,10.40
2023-11-03T09:51:02.633Z,10.40
2023-11-03T09:56:07.122Z,10.60
2023-11-03T10:01:10.844Z,10.90
2023-11-03T10:06:12.648Z,10.80
2023-11-03T10:11:14.453Z,10.70
2023-11-03T10:16:17.806Z,10.70
2023-11-03T10:21:19.718Z,10.80
2023-11-03T10:26:21.452Z,10.80
2023-11-03T10:31:25.176Z,10.80
2023-11-03T10:36:26.990Z,10.90
2023-11-03T10:41:29.100Z,10.90
2023-11-03T10:46:36.780Z,10.60
2023-11-03T10:51:42.743Z,10.50
2023-11-03T10:57:08.781Z,10.30
2023-11-03T11:02:15.467Z,10.30
2023-11-03T11:07:20.795Z,10.20
2023-11-03T11:12:22.694Z,10.20
2023-11-03T11:17:35.723Z,10.30
2023-11-03T11:22:41.449Z,10.40
2023-11-03T11:27:49.523Z,10.50
2023-11-03T11:32:52.940Z,10.50
2023-11-03T11:37:54.837Z,10.60
2023-11-03T11:43:05.354Z,10.90
2023-11-03T11:48:16.725Z,11.20
2023-11-03T11:53:18.593Z,11.20
2023-11-03T11:58:20.732Z,11.10
2023-11-03T12:03:24.125Z,11.00
2023-11-03T12:08:26.333Z,10.80
2023-11-03T12:13:28.160Z,10.80
2023-11-03T12:18:38.315Z,10.70
2023-11-03T12:23:40.081Z,10.70
2023-11-03T12:28:41.848Z,10.60
2023-11-03T12:33:50.732Z,10.50
2023-11-03T12:38:53.437Z,10.50
2023-11-03T12:44:02.460Z,10.70
2023-11-03T12:49:09.413Z,10.70
2023-11-03T12:54:14.211Z,10.90
2023-11-03T12:59:16.056Z,10.90
2023-11-03T13:04:22.353Z,11.00
2023-11-03T13:09:24.165Z,11.00
2023-11-03T13:14:33.575Z,11.00
2023-11-03T13:19:36.802Z,11.10
2023-11-03T13:24:43.130Z,11.30
2023-11-03T13:29:44.791Z,11.30
2023-11-03T13:34:47.842Z,11.50
2023-11-03T13:39:49.597Z,11.80
2023-11-03T13:44:51.286Z,11.80
2023-11-03T13:49:57.147Z,11.50
2023-11-03T14:00:30.345Z,11.20
2023-11-03T14:05:33.513Z,11.00
2023-11-03T14:10:35.523Z,10.90
2023-11-03T14:15:37.372Z,10.70
2023-11-03T14:20:40.506Z,10.70
2023-11-03T14:25:42.393Z,10.80
2023-11-03T14:30:44.194Z,11.00
2023-11-03T14:35:47.786Z,10.90
2023-11-03T14:40:49.538Z,10.90
2023-11-03T14:45:51.311Z,10.60
2023-11-03T14:50:54.463Z,10.50
2023-11-03T14:55:56.298Z,10.40
2023-11-03T15:00:58.023Z,10.30
2023-11-03T15:06:01.724Z,10.30
2023-11-03T15:11:03.767Z,10.20
2023-11-03T15:16:09.016Z,10.10
2023-11-03T15:21:13.676Z,10.00
2023-11-03T15:26:15.472Z,9.70
2023-11-03T15:31:17.292Z,9.60
2023-11-03T15:36:20.536Z,9.40
2023-11-03T15:41:22.296Z,9.30
2023-11-03T15:46:26.789Z,9.20
2023-11-03T15:51:29.896Z,9.00
2023-11-03T15:56:31.642Z,8.80
2023-11-03T16:01:33.575Z,8.60
2023-11-03T16:06:36.696Z,8.40
2023-11-03T16:11:38.518Z,8.20
2023-11-03T16:16:40.360Z,8.00
2023-11-03T16:21:43.550Z,7.90
2023-11-03T16:26:45.241Z,7.90
2023-11-03T16:31:46.984Z,7.90
2023-11-03T16:36:50.091Z,7.90
2023-11-03T16:41:51.853Z,7.90
2023-11-03T16:46:56.494Z,7.90
2023-11-03T16:51:59.661Z,7.90
2023-11-03T16:57:01.416Z,7.80
2023-11-03T17:02:03.566Z,7.80
2023-11-03T17:07:06.920Z,7.70
2023-11-03T17:12:09.501Z,7.60
2023-11-03T17:17:11.261Z,7.50
2023-11-03T17:22:14.610Z,7.50
2023-11-03T17:27:16.397Z,7.50
2023-11-03T17:32:18.139Z,7.50
2023-11-03T17:37:21.260Z,7.30
2023-11-03T17:42:23.159Z,7.10
2023-11-03T17:47:24.918Z,7.10
2023-11-03T17:52:28.145Z,7.00
2023-11-03T17:57:30.112Z,6.90
2023-11-03T18:02:32.274Z,6.80
2023-11-03T18:07:35.408Z,6.90
2023-11-03T18:12:37.280Z,7.00
2023-11-03T18:17:40.193Z,6.90
2023-11-03T18:22:44.232Z,6.90
2023-11-03T18:27:46.266Z,7.00
2023-11-03T18:32:48.043Z,6.90
2023-11-03T18:37:51.320Z,7.00
2023-11-03T18:42:53.046Z,7.00
2023-11-03T18:47:54.886Z,7.00
2023-11-03T18:52:57.987Z,7.00
2023-11-03T19:04:41.583Z,7.00
2023-11-03T19:08:29.028Z,7.00
2023-11-03T19:13:30.925Z,7.00
2023-11-03T19:18:32.758Z,7.00
2023-11-03T19:23:35.980Z,7.20
2023-11-03T19:28:37.719Z,7.20
2023-11-03T19:33:39.489Z,7.20
2023-11-03T19:38:42.724Z,7.20
2023-11-03T19:43:44.445Z,7.20
2023-11-03T19:48:48.651Z,7.20
2023-11-03T19:53:53.437Z,7.10
2023-11-03T19:58:55.170Z,7.20
2023-11-03T20:03:59.462Z,7.10
2023-11-03T20:09:02.900Z,7.10
2023-11-03T20:14:04.822Z,7.20
2023-11-03T20:19:06.677Z,7.10
2023-11-03T20:24:10.692Z,7.10
2023-11-03T20:29:12.468Z,7.10
2023-11-03T20:34:14.341Z,7.00
2023-11-03T20:39:17.568Z,7.00
2023-11-03T20:44:19.364Z,7.00
2023-11-03T20:49:21.166Z,6.90
2023-11-03T20:54:24.467Z,6.80
2023-11-03T20:59:26.184Z,6.80
2023-11-03T21:04:28.130Z,6.80
2023-11-03T21:09:31.355Z,6.80
2023-11-03T21:14:33.115Z,6.90
2023-11-03T21:19:35.065Z,6.90
2023-11-03T21:24:38.445Z,6.90
2023-11-03T21:29:40.205Z,6.90
2023-11-03T21:34:42.072Z,6.90
2023-11-03T21:39:45.446Z,6.90
2023-11-03T21:44:49.453Z,6.90
2023-11-03T21:49:51.237Z,6.90
2023-11-03T21:54:54.524Z,6.80
2023-11-03T21:59:56.415Z,6.80
2023-11-03T22:04:58.381Z,6.90
2023-11-03T22:10:01.596Z,6.80
2023-11-03T22:15:03.943Z,6.70
2023-11-03T22:20:06.879Z,6.70
2023-11-03T22:25:10.259Z,6.60
2023-11-03T22:30:13.076Z,6.50
2023-11-03T22:35:15.261Z,6.30
2023-11-03T22:40:18.569Z,6.20
2023-11-03T22:45:20.319Z,6.30
2023-11-03T22:50:22.164Z,6.20
2023-11-03T22:55:25.285Z,6.20
2023-11-03T23:00:27.082Z,6.10
2023-11-03T23:05:28.922Z,6.20
2023-11-03T23:10:33.006Z,6.10
2023-11-03T23:15:34.908Z,6.10
2023-11-03T23:20:36.705Z,6.10
2023-11-03T23:25:39.886Z,6.00
2023-11-03T23:30:41.700Z,6.00
2023-11-03T23:35:43.563Z,6.00
2023-11-03T23:40:46.802Z,6.00
2023-11-03T23:45:49.630Z,6.10
2023-11-03T23:50:51.586Z,6.10
2023-11-03T23:55:54.894Z,6.30
